createdAt,value
2023-05-08T00:00:13.626Z,19.77
2023-05-08T00:02:41.705Z,22.02
2023-05-08T00:05:08.340Z,22.23
2023-05-08T00:07:36.062Z,19.08
2023-05-08T00:10:02.705Z,21.33
2023-05-08T00:12:29.210Z,21.80
2023-05-08T00:14:55.977Z,22.30
2023-05-08T00:17:22.611Z,20.90
2023-05-08T00:19:49.298Z,19.90
2023-05-08T00:22:15.891Z,20.35
2023-05-08T00:24:42.619Z,22.33
2023-05-08T00:27:09.132Z,20.15
2023-05-08T00:29:36.006Z,22.05
2023-05-08T00:32:02.765Z,19.80
2023-05-08T00:34:29.374Z,19.05
2023-05-08T00:36:56.375Z,16.88
2023-05-08T00:39:23.010Z,17.88
2023-05-08T00:41:49.626Z,17.33
2023-05-08T00:44:16.272Z,16.80
2023-05-08T00:46:43.257Z,16.90
2023-05-08T00:49:13.258Z,17.17
2023-05-08T00:51:40.838Z,18.45
2023-05-08T00:54:07.332Z,18.33
2023-05-08T00:56:34.205Z,17.83
2023-05-08T00:59:01.401Z,17.70
2023-05-08T01:01:28.331Z,18.90
2023-05-08T01:03:55.038Z,18.90
2023-05-08T01:06:21.723Z,19.00
2023-05-08T01:08:49.185Z,16.70
2023-05-08T01:11:22.137Z,17.40
2023-05-08T01:13:51.803Z,18.50
2023-05-08T01:16:23.114Z,17.13
2023-05-08T01:18:55.882Z,17.73
2023-05-08T01:21:22.525Z,18.95
2023-05-08T01:23:49.210Z,17.02
2023-05-08T01:26:29.071Z,15.60
2023-05-08T01:29:11.384Z,14.82
2023-05-08T01:31:43.878Z,15.23
2023-05-08T01:34:30.697Z,17.33
2023-05-08T01:37:04.588Z,17.05
2023-05-08T01:39:39.336Z,17.40
2023-05-08T01:42:08.316Z,14.77
2023-05-08T01:44:40.098Z,14.80
2023-05-08T01:47:08.403Z,14.20
2023-05-08T01:49:38.365Z,13.85
2023-05-08T01:52:13.845Z,10.68
2023-05-08T01:54:44.692Z,10.05
2023-05-08T01:57:12.447Z,9.85
2023-05-08T01:59:41.711Z,9.35
2023-05-08T02:02:11.406Z,8.57
2023-05-08T02:04:38.682Z,9.10
2023-05-08T02:07:08.052Z,8.50
2023-05-08T02:09:34.917Z,7.90
2023-05-08T02:12:03.060Z,8.50
2023-05-08T02:14:30.423Z,6.88
2023-05-08T02:16:57.777Z,7.38
2023-05-08T02:19:25.157Z,6.93
2023-05-08T02:21:52.319Z,7.13
2023-05-08T02:24:19.602Z,6.70
2023-05-08T02:26:46.397Z,7.20
2023-05-08T02:29:14.026Z,6.70
2023-05-08T02:31:41.183Z,6.50
2023-05-08T02:34:08.421Z,6.85
2023-05-08T02:36:35.893Z,6.97
2023-05-08T02:39:03.124Z,7.25
2023-05-08T02:41:32.419Z,7.05
2023-05-08T02:43:59.200Z,7.03
2023-05-08T02:46:27.837Z,7.72
2023-05-08T02:48:54.727Z,7.65
2023-05-08T02:51:25.405Z,7.72
2023-05-08T02:53:58.628Z,8.13
2023-05-08T02:56:37.626Z,9.45
2023-05-08T02:59:14.257Z,9.70
2023-05-08T03:01:52.407Z,10.65
2023-05-08T03:04:28.354Z,11.73
2023-05-08T03:06:56.970Z,12.60
2023-05-08T03:09:26.407Z,13.93
2023-05-08T03:11:58.030Z,13.73
2023-05-08T03:14:27.042Z,16.73
2023-05-08T03:16:55.356Z,16.05
2023-05-08T03:19:28.416Z,16.90
2023-05-08T03:21:55.803Z,15.82
2023-05-08T03:24:24.600Z,15.85
2023-05-08T03:26:51.344Z,15.18
2023-05-08T03:29:18.590Z,15.50
2023-05-08T03:31:47.360Z,14.57
2023-05-08T03:34:14.869Z,14.70
2023-05-08T03:36:42.260Z,16.95
2023-05-08T03:39:09.228Z,16.05
2023-05-08T03:41:36.226Z,16.38
2023-05-08T03:44:03.544Z,16.67
2023-05-08T03:46:34.458Z,14.55
2023-05-08T03:49:03.076Z,15.52
2023-05-08T03:51:30.228Z,15.07
2023-05-08T03:53:57.011Z,16.80
2023-05-08T03:56:25.921Z,16.40
2023-05-08T03:59:13.519Z,15.57
2023-05-08T04:01:44.461Z,16.58
2023-05-08T04:04:18.381Z,17.45
2023-05-08T04:06:49.936Z,17.23
2023-05-08T04:09:24.986Z,17.63
2023-05-08T04:11:51.743Z,17.45
2023-05-08T04:14:19.768Z,16.55
2023-05-08T04:16:53.738Z,16.83
2023-05-08T04:19:25.174Z,16.42
2023-05-08T04:21:55.887Z,16.50
2023-05-08T04:24:23.588Z,17.23
2023-05-08T04:26:50.758Z,18.25
2023-05-08T04:29:17.869Z,17.08
2023-05-08T04:31:45.572Z,16.50
2023-05-08T04:34:12.540Z,16.95
2023-05-08T04:36:39.131Z,18.35
2023-05-08T04:39:06.881Z,17.75
2023-05-08T04:41:35.432Z,17.13
2023-05-08T04:44:03.365Z,16.88
2023-05-08T04:46:30.287Z,16.60
2023-05-08T04:48:57.290Z,16.08
2023-05-08T04:51:23.918Z,16.10
2023-05-08T04:53:50.767Z,16.05
2023-05-08T04:56:17.362Z,15.63
2023-05-08T04:58:44.365Z,14.63
2023-05-08T05:01:13.815Z,15.45
2023-05-08T05:03:40.638Z,14.52
2023-05-08T05:06:07.260Z,13.38
2023-05-08T05:08:33.949Z,13.45
2023-05-08T05:11:01.009Z,13.25
2023-05-08T05:13:28.588Z,14.43
2023-05-08T05:15:56.426Z,15.30
2023-05-08T05:18:23.603Z,14.38
2023-05-08T05:20:51.711Z,12.55
2023-05-08T05:23:18.558Z,13.25
2023-05-08T05:29:54.217Z,13.10
2023-05-08T05:32:21.171Z,13.55
2023-05-08T05:34:48.295Z,14.50
2023-05-08T05:37:14.965Z,14.52
2023-05-08T05:39:41.626Z,13.73
2023-05-08T05:42:08.892Z,12.88
2023-05-08T05:44:35.555Z,13.65
2023-05-08T05:47:02.237Z,13.38
2023-05-08T05:49:28.825Z,12.88
2023-05-08T05:51:55.598Z,12.98
2023-05-08T05:54:22.286Z,13.55
2023-05-08T05:56:49.249Z,13.02
2023-05-08T05:59:15.789Z,12.25
2023-05-08T06:01:42.523Z,12.23
2023-05-08T06:04:09.302Z,12.43
2023-05-08T06:06:36.105Z,13.05
2023-05-08T06:09:02.634Z,13.02
2023-05-08T06:11:29.173Z,11.18
2023-05-08T06:13:55.736Z,12.45
2023-05-08T06:16:30.711Z,13.57
2023-05-08T06:18:57.483Z,12.70
2023-05-08T06:21:25.187Z,13.00
2023-05-08T06:23:52.321Z,12.23
2023-05-08T06:26:18.789Z,10.55
2023-05-08T06:28:45.418Z,11.20
2023-05-08T06:31:12.031Z,10.35
2023-05-08T06:33:38.909Z,10.48
2023-05-08T06:36:06.220Z,10.00
2023-05-08T06:38:32.853Z,9.80
2023-05-08T06:40:59.473Z,10.55
2023-05-08T06:43:26.182Z,10.68
2023-05-08T06:45:53.182Z,10.43
2023-05-08T06:48:20.133Z,11.20
2023-05-08T06:50:48.082Z,9.65
2023-05-08T06:53:14.630Z,9.57
2023-05-08T06:55:42.931Z,10.18
2023-05-08T06:58:09.499Z,10.52
2023-05-08T07:00:36.103Z,10.50
2023-05-08T07:03:02.761Z,10.88
2023-05-08T07:05:29.378Z,10.27
2023-05-08T07:07:56.148Z,9.70
2023-05-08T07:10:23.058Z,9.85
2023-05-08T07:12:49.857Z,11.00
2023-05-08T07:15:25.332Z,12.05
2023-05-08T07:17:52.913Z,11.32
2023-05-08T07:20:19.775Z,11.73
2023-05-08T07:22:46.674Z,11.68
2023-05-08T07:25:13.443Z,11.35
2023-05-08T07:27:40.243Z,10.10
2023-05-08T07:30:07.188Z,9.10
2023-05-08T07:32:33.881Z,9.38
2023-05-08T07:35:08.362Z,9.73
2023-05-08T07:37:36.813Z,9.38
2023-05-08T07:40:03.525Z,9.82
2023-05-08T07:42:30.343Z,10.70
2023-05-08T07:44:56.882Z,11.02
2023-05-08T07:47:23.496Z,10.50
2023-05-08T07:49:50.068Z,9.65
2023-05-08T07:52:16.802Z,10.80
2023-05-08T07:54:43.876Z,11.32
2023-05-08T07:57:11.437Z,10.80
2023-05-08T07:59:38.047Z,11.13
2023-05-08T08:02:04.867Z,11.15
2023-05-08T08:04:31.576Z,12.02
2023-05-08T08:06:58.248Z,12.07
2023-05-08T08:09:24.901Z,12.27
2023-05-08T08:11:51.578Z,12.25
2023-05-08T08:14:18.105Z,12.25
2023-05-08T08:16:44.759Z,13.27
2023-05-08T08:19:11.300Z,12.15
2023-05-08T08:21:42.515Z,14.30
2023-05-08T08:24:09.069Z,14.50
2023-05-08T08:26:35.572Z,14.45
2023-05-08T08:29:02.281Z,13.52
2023-05-08T08:31:29.067Z,13.55
2023-05-08T08:33:56.843Z,13.68
2023-05-08T08:36:23.339Z,14.43
2023-05-08T08:38:49.914Z,14.48
2023-05-08T08:41:16.456Z,14.35
2023-05-08T08:43:46.112Z,15.07
2023-05-08T08:46:16.196Z,15.32
2023-05-08T08:48:46.585Z,28.75
2023-05-08T08:51:23.443Z,14.25
2023-05-08T08:53:53.342Z,19.35
2023-05-08T08:56:21.366Z,14.93
2023-05-08T08:58:51.158Z,19.40
2023-05-08T09:01:18.665Z,14.77
2023-05-08T09:03:47.469Z,14.68
2023-05-08T09:06:15.098Z,13.38
2023-05-08T09:08:42.234Z,15.00
2023-05-08T09:11:08.953Z,12.55
2023-05-08T09:13:35.694Z,13.90
2023-05-08T09:16:02.690Z,12.75
2023-05-08T09:18:29.316Z,12.88
2023-05-08T09:20:56.464Z,13.35
2023-05-08T09:23:23.241Z,14.07
2023-05-08T09:25:53.949Z,12.90
2023-05-08T09:28:21.505Z,13.18
2023-05-08T09:30:55.366Z,13.85
2023-05-08T09:33:23.073Z,13.23
2023-05-08T09:35:49.831Z,13.82
2023-05-08T09:38:36.076Z,13.73
2023-05-08T09:41:15.936Z,13.30
2023-05-08T09:43:43.749Z,13.68
2023-05-08T09:46:22.579Z,13.57
2023-05-08T09:48:49.609Z,13.77
2023-05-08T09:51:16.274Z,14.55
2023-05-08T09:53:42.803Z,13.85
2023-05-08T09:56:09.756Z,14.18
2023-05-08T09:58:40.534Z,14.63
2023-05-08T10:01:07.800Z,14.10
2023-05-08T10:04:04.234Z,14.38
2023-05-08T10:06:31.056Z,13.88
2023-05-08T10:09:10.668Z,14.00
2023-05-08T10:11:38.004Z,14.80
2023-05-08T10:14:04.727Z,13.30
2023-05-08T10:16:31.891Z,14.13
2023-05-08T10:19:01.138Z,13.52
2023-05-08T10:21:32.933Z,13.45
2023-05-08T10:24:02.317Z,13.02
2023-05-08T10:26:30.859Z,13.25
2023-05-08T10:29:04.851Z,13.45
2023-05-08T10:31:34.253Z,13.63
2023-05-08T10:34:05.057Z,14.15
2023-05-08T10:36:32.567Z,14.15
2023-05-08T10:38:59.229Z,13.35
2023-05-08T10:41:28.001Z,13.85
2023-05-08T10:43:54.636Z,13.55
2023-05-08T10:46:50.872Z,13.60
2023-05-08T10:49:25.709Z,13.43
2023-05-08T10:52:01.357Z,13.13
2023-05-08T10:54:38.585Z,13.77
2023-05-08T10:57:09.488Z,14.88
2023-05-08T10:59:39.601Z,14.68
2023-05-08T11:02:07.305Z,13.00
2023-05-08T11:04:34.773Z,13.77
2023-05-08T11:07:01.705Z,14.80
2023-05-08T11:09:29.203Z,18.58
2023-05-08T11:12:09.933Z,19.00
2023-05-08T11:14:38.051Z,15.98
2023-05-08T11:17:04.951Z,14.27
2023-05-08T11:19:31.934Z,15.02
2023-05-08T11:22:18.311Z,13.52
2023-05-08T11:24:49.253Z,13.98
2023-05-08T11:27:16.095Z,14.07
2023-05-08T11:29:42.644Z,15.60
2023-05-08T11:32:09.440Z,15.38
2023-05-08T11:34:42.111Z,16.00
2023-05-08T11:37:09.439Z,16.67
2023-05-08T11:39:36.004Z,16.15
2023-05-08T11:42:35.159Z,14.13
2023-05-08T11:45:01.980Z,13.75
2023-05-08T11:47:32.301Z,15.38
2023-05-08T11:49:59.368Z,16.23
2023-05-08T11:52:26.466Z,16.00
2023-05-08T11:54:53.421Z,13.90
2023-05-08T11:57:20.025Z,13.52
2023-05-08T11:59:49.693Z,13.93
2023-05-08T12:02:16.598Z,14.60
2023-05-08T12:04:44.576Z,15.55
2023-05-08T12:07:11.941Z,15.80
2023-05-08T12:09:38.782Z,15.90
2023-05-08T12:12:05.484Z,15.23
2023-05-08T12:14:34.655Z,14.23
2023-05-08T12:17:02.485Z,14.27
2023-05-08T12:19:29.144Z,13.48
2023-05-08T12:21:57.022Z,13.82
2023-05-08T12:24:26.313Z,15.25
2023-05-08T12:26:56.533Z,17.08
2023-05-08T12:29:23.916Z,17.60
2023-05-08T12:31:51.117Z,18.13
2023-05-08T12:34:17.798Z,18.05
2023-05-08T12:36:44.417Z,17.17
2023-05-08T12:39:11.741Z,17.20
2023-05-08T12:41:51.533Z,18.60
2023-05-08T12:44:18.845Z,17.60
2023-05-08T12:46:55.815Z,16.23
2023-05-08T12:49:29.404Z,15.80
2023-05-08T12:52:09.076Z,16.75
2023-05-08T12:54:40.023Z,18.48
2023-05-08T12:57:13.190Z,18.60
2023-05-08T12:59:40.193Z,17.58
2023-05-08T13:02:33.521Z,16.42
2023-05-08T13:05:03.631Z,15.50
2023-05-08T13:07:33.458Z,15.60
2023-05-08T13:10:03.795Z,16.02
2023-05-08T13:12:30.960Z,16.98
2023-05-08T13:14:57.981Z,17.10
2023-05-08T13:17:24.957Z,17.95
2023-05-08T13:19:53.068Z,17.73
2023-05-08T13:22:27.694Z,18.00
2023-05-08T13:25:02.031Z,18.65
2023-05-08T13:27:31.729Z,18.30
2023-05-08T13:30:15.473Z,21.95
2023-05-08T13:32:56.496Z,22.70
2023-05-08T13:35:29.645Z,19.65
2023-05-08T13:41:39.072Z,18.83
2023-05-08T13:44:08.404Z,18.10
2023-05-08T13:46:39.007Z,18.00
2023-05-08T13:49:08.002Z,18.05
2023-05-08T13:51:37.960Z,17.15
2023-05-08T13:54:04.696Z,18.70
2023-05-08T13:56:31.496Z,17.23
2023-05-08T13:58:58.405Z,17.90
2023-05-08T14:01:27.086Z,16.35
2023-05-08T14:03:54.679Z,15.10
2023-05-08T14:06:21.562Z,16.05
2023-05-08T14:08:57.299Z,26.95
2023-05-08T14:11:33.261Z,14.30
2023-05-08T14:14:00.127Z,15.80
2023-05-08T14:16:30.151Z,11.82
2023-05-08T14:18:59.220Z,9.77
2023-05-08T14:21:28.795Z,10.70
2023-05-08T14:23:59.030Z,8.65
2023-05-08T14:26:26.609Z,8.30
2023-05-08T14:29:00.980Z,9.38
2023-05-08T14:31:38.093Z,9.05
2023-05-08T14:34:08.176Z,8.40
2023-05-08T14:36:34.790Z,8.15
2023-05-08T14:39:04.055Z,8.75
2023-05-08T14:41:31.239Z,8.25
2023-05-08T14:44:01.241Z,6.55
2023-05-08T14:46:30.235Z,5.43
2023-05-08T14:48:57.090Z,7.07
2023-05-08T14:51:25.098Z,5.70
2023-05-08T14:53:51.926Z,5.57
2023-05-08T14:56:19.099Z,4.82
2023-05-08T14:58:49.583Z,4.53
2023-05-08T15:01:20.172Z,4.20
2023-05-08T15:03:52.969Z,2.67
2023-05-08T15:06:23.452Z,3.25
2023-05-08T15:08:51.798Z,2.90
2023-05-08T15:11:18.297Z,2.58
2023-05-08T15:13:45.164Z,3.30
2023-05-08T15:16:11.748Z,2.97
2023-05-08T15:18:39.004Z,2.63
2023-05-08T15:21:05.798Z,2.78
2023-05-08T15:23:32.532Z,2.58
2023-05-08T15:25:59.165Z,2.72
2023-05-08T15:28:26.617Z,2.60
2023-05-08T15:30:53.153Z,2.58
2023-05-08T15:33:19.720Z,2.92
2023-05-08T15:35:46.461Z,3.50
2023-05-08T15:38:13.129Z,3.47
2023-05-08T15:40:39.968Z,3.45
2023-05-08T15:43:07.135Z,2.50
2023-05-08T15:45:33.669Z,2.85
2023-05-08T15:48:00.298Z,2.25
2023-05-08T15:50:27.009Z,2.70
2023-05-08T15:52:53.551Z,2.67
2023-05-08T15:55:21.443Z,2.50
2023-05-08T15:57:49.428Z,2.50
2023-05-08T16:00:18.156Z,2.30
2023-05-08T16:02:44.878Z,2.28
2023-05-08T16:05:11.720Z,3.17
2023-05-08T16:07:38.565Z,2.40
2023-05-08T16:10:07.334Z,2.67
2023-05-08T16:12:34.267Z,2.97
2023-05-08T16:15:00.819Z,2.65
2023-05-08T16:17:27.422Z,2.45
2023-05-08T16:19:54.390Z,2.38
2023-05-08T16:22:23.213Z,2.65
2023-05-08T16:24:52.473Z,2.78
2023-05-08T16:27:19.348Z,2.60
2023-05-08T16:29:46.232Z,3.47
2023-05-08T16:32:12.860Z,4.10
2023-05-08T16:34:39.608Z,3.05
2023-05-08T16:37:06.313Z,2.83
2023-05-08T16:39:32.861Z,2.88
2023-05-08T16:41:59.405Z,2.95
2023-05-08T16:44:26.382Z,2.40
2023-05-08T16:46:53.081Z,2.67
2023-05-08T16:49:19.640Z,2.70
2023-05-08T16:51:46.339Z,2.97
2023-05-08T16:54:12.841Z,2.70
2023-05-08T16:56:39.341Z,3.10
2023-05-08T16:59:08.692Z,2.97
2023-05-08T17:01:35.563Z,3.05
2023-05-08T17:04:02.150Z,3.38
2023-05-08T17:06:28.913Z,3.60
2023-05-08T17:08:55.596Z,3.10
2023-05-08T17:11:22.514Z,3.70
2023-05-08T17:13:49.012Z,3.80
2023-05-08T17:16:16.738Z,3.63
2023-05-08T17:18:44.464Z,4.70
2023-05-08T17:21:11.062Z,3.42
2023-05-08T17:23:37.674Z,3.50
2023-05-08T17:26:04.390Z,3.20
2023-05-08T17:28:31.192Z,3.17
2023-05-08T17:30:57.763Z,3.53
2023-05-08T17:33:24.524Z,3.10
2023-05-08T17:35:51.210Z,3.03
2023-05-08T17:38:17.771Z,2.90
2023-05-08T17:40:44.396Z,3.20
2023-05-08T17:43:10.989Z,3.42
2023-05-08T17:45:37.874Z,3.22
2023-05-08T17:48:05.012Z,3.40
2023-05-08T17:50:31.569Z,2.70
2023-05-08T17:52:58.010Z,2.88
2023-05-08T17:55:24.593Z,3.30
2023-05-08T17:57:51.167Z,3.72
2023-05-08T18:00:17.881Z,3.08
2023-05-08T18:02:44.480Z,3.63
2023-05-08T18:05:11.177Z,3.33
2023-05-08T18:07:37.679Z,3.00
2023-05-08T18:10:04.495Z,3.22
2023-05-08T18:12:31.992Z,3.60
2023-05-08T18:14:59.596Z,3.63
2023-05-08T18:17:29.273Z,3.58
2023-05-08T18:19:55.947Z,3.65
2023-05-08T18:22:22.477Z,3.67
2023-05-08T18:24:50.074Z,3.35
2023-05-08T18:27:16.676Z,3.45
2023-05-08T18:29:43.233Z,3.63
2023-05-08T18:32:11.367Z,4.18
2023-05-08T18:34:38.001Z,4.25
2023-05-08T18:37:04.472Z,4.30
2023-05-08T18:39:31.083Z,3.80
2023-05-08T18:41:57.569Z,3.95
2023-05-08T18:44:24.175Z,3.88
2023-05-08T18:46:50.715Z,3.95
2023-05-08T18:49:17.343Z,4.03
2023-05-08T18:51:43.839Z,3.50
2023-05-08T18:54:10.426Z,4.10
2023-05-08T18:56:36.959Z,3.92
2023-05-08T18:59:03.732Z,3.67
2023-05-08T19:01:30.254Z,3.42
2023-05-08T19:03:57.051Z,3.67
2023-05-08T19:06:23.705Z,3.40
2023-05-08T19:08:52.166Z,3.88
2023-05-08T19:11:22.041Z,4.40
2023-05-08T19:13:51.620Z,4.00
2023-05-08T19:16:18.160Z,3.80
2023-05-08T19:18:45.009Z,3.70
2023-05-08T19:21:11.691Z,3.85
2023-05-08T19:23:38.422Z,3.60
2023-05-08T19:26:05.199Z,3.90
2023-05-08T19:28:31.910Z,3.83
2023-05-08T19:30:59.094Z,4.00
2023-05-08T19:33:25.822Z,4.20
2023-05-08T19:35:52.480Z,4.15
2023-05-08T19:38:19.205Z,4.40
2023-05-08T19:40:57.294Z,4.13
2023-05-08T19:43:25.395Z,4.07
2023-05-08T19:45:51.912Z,3.95
2023-05-08T19:48:20.030Z,3.92
2023-05-08T19:50:46.677Z,4.40
2023-05-08T19:53:13.265Z,4.22
2023-05-08T19:55:39.738Z,7.20
2023-05-08T19:58:06.525Z,8.77
2023-05-08T20:00:33.152Z,7.30
2023-05-08T20:02:59.788Z,4.07
2023-05-08T20:05:28.294Z,3.97
2023-05-08T20:07:55.133Z,4.18
2023-05-08T20:10:21.914Z,4.13
2023-05-08T20:12:49.049Z,4.90
2023-05-08T20:15:15.775Z,5.03
2023-05-08T20:17:42.585Z,4.80
2023-05-08T20:20:09.630Z,4.57
2023-05-08T20:22:37.781Z,4.13
2023-05-08T20:25:06.512Z,4.15
2023-05-08T20:27:33.049Z,4.32
2023-05-08T20:29:59.655Z,4.15
2023-05-08T20:32:26.529Z,4.15
2023-05-08T20:34:53.222Z,4.47
2023-05-08T20:37:19.910Z,4.05
2023-05-08T20:39:46.404Z,3.90
2023-05-08T20:42:13.256Z,3.97
2023-05-08T20:44:39.944Z,4.00
2023-05-08T20:47:06.711Z,4.60
2023-05-08T20:49:33.635Z,4.25
2023-05-08T20:52:00.245Z,4.85
2023-05-08T20:54:28.749Z,4.40
2023-05-08T20:56:55.386Z,3.85
2023-05-08T20:59:23.236Z,3.75
2023-05-08T21:01:49.988Z,4.28
2023-05-08T21:04:17.015Z,4.07
2023-05-08T21:06:43.622Z,4.00
2023-05-08T21:09:10.113Z,4.22
2023-05-08T21:11:36.628Z,4.07
2023-05-08T21:14:03.134Z,3.78
2023-05-08T21:16:29.634Z,4.13
2023-05-08T21:18:58.240Z,4.05
2023-05-08T21:21:25.361Z,4.32
2023-05-08T21:23:51.819Z,4.47
2023-05-08T21:26:20.059Z,3.72
2023-05-08T21:28:46.616Z,4.53
2023-05-08T21:31:13.234Z,4.07
2023-05-08T21:33:39.973Z,4.82
2023-05-08T21:36:06.644Z,4.40
2023-05-08T21:38:33.105Z,4.55
2023-05-08T21:41:04.984Z,5.80
2023-05-08T21:43:31.548Z,4.80
2023-05-08T21:45:58.079Z,6.35
2023-05-08T21:48:24.782Z,5.07
2023-05-08T21:50:51.450Z,4.93
2023-05-08T21:53:18.066Z,5.10
2023-05-08T21:55:44.539Z,5.43
2023-05-08T21:58:11.417Z,5.32
2023-05-08T22:00:37.882Z,5.93
2023-05-08T22:03:04.555Z,5.53
2023-05-08T22:05:31.230Z,5.80
2023-05-08T22:07:57.827Z,5.82
2023-05-08T22:10:25.578Z,6.40
2023-05-08T22:12:52.240Z,6.68
2023-05-08T22:15:28.911Z,6.72
2023-05-08T22:17:56.924Z,6.72
2023-05-08T22:20:23.481Z,8.25
2023-05-08T22:22:50.598Z,7.35
2023-05-08T22:25:17.240Z,8.00
2023-05-08T22:27:43.761Z,7.97
2023-05-08T22:30:10.757Z,8.70
2023-05-08T22:32:37.390Z,8.60
2023-05-08T22:35:04.028Z,9.00
2023-05-08T22:37:30.577Z,9.40
2023-05-08T22:39:57.036Z,9.23
2023-05-08T22:42:24.188Z,9.65
2023-05-08T22:44:51.024Z,9.40
2023-05-08T22:47:17.667Z,9.02
2023-05-08T22:49:44.158Z,8.98
2023-05-08T22:52:10.773Z,9.75
2023-05-08T22:54:37.363Z,9.95
2023-05-08T22:57:03.953Z,10.30
2023-05-08T22:59:30.602Z,9.82
2023-05-08T23:01:57.158Z,9.70
2023-05-08T23:04:23.623Z,9.73
2023-05-08T23:06:50.209Z,10.38
2023-05-08T23:09:16.742Z,9.50
2023-05-08T23:11:43.297Z,10.07
2023-05-08T23:14:09.731Z,10.20
2023-05-08T23:16:36.410Z,9.00
2023-05-08T23:19:04.582Z,10.13
2023-05-08T23:21:32.063Z,9.73
2023-05-08T23:23:59.077Z,9.75
2023-05-08T23:26:26.210Z,10.70
2023-05-08T23:28:52.715Z,10.20
2023-05-08T23:31:19.517Z,10.20
2023-05-08T23:33:46.013Z,10.57
2023-05-08T23:36:12.549Z,10.07
2023-05-08T23:38:39.096Z,10.38
2023-05-08T23:41:05.798Z,10.48
2023-05-08T23:43:32.410Z,10.43
2023-05-08T23:45:59.024Z,9.50
2023-05-08T23:48:25.867Z,11.02
2023-05-08T23:50:52.426Z,9.75
2023-05-08T23:53:19.140Z,10.65
2023-05-08T23:55:48.858Z,10.13
2023-05-08T23:58:15.630Z,10.25
